createdAt,value
2022-09-07T00:01:53.576Z,3.45
2022-09-07T00:04:23.803Z,2.70
2022-09-07T00:06:52.442Z,2.60
2022-09-07T00:09:21.059Z,3.22
2022-09-07T00:11:49.615Z,3.50
2022-09-07T00:14:18.470Z,3.20
2022-09-07T00:16:47.159Z,2.90
2022-09-07T00:19:15.761Z,2.75
2022-09-07T00:21:45.764Z,3.33
2022-09-07T00:24:14.620Z,2.63
2022-09-07T00:29:11.812Z,3.42
2022-09-07T00:31:40.445Z,3.22
2022-09-07T00:34:09.066Z,3.03
2022-09-07T00:36:37.620Z,3.78
2022-09-07T00:39:07.862Z,3.00
2022-09-07T00:41:36.579Z,3.20
2022-09-07T00:44:38.244Z,3.28
2022-09-07T00:47:10.980Z,3.28
2022-09-07T00:49:41.234Z,3.00
2022-09-07T00:52:12.367Z,3.05
2022-09-07T00:54:46.344Z,3.30
2022-09-07T00:57:15.337Z,2.97
2022-09-07T00:59:46.031Z,3.28
2022-09-07T01:02:17.508Z,3.13
2022-09-07T01:04:49.821Z,2.63
2022-09-07T01:07:18.556Z,3.15
2022-09-07T01:09:51.003Z,2.80
2022-09-07T01:12:19.693Z,2.80
2022-09-07T01:14:51.459Z,3.13
2022-09-07T01:17:28.602Z,3.60
2022-09-07T01:20:29.898Z,3.08
2022-09-07T01:23:28.603Z,2.40
2022-09-07T01:26:17.850Z,2.70
2022-09-07T01:28:52.425Z,2.95
2022-09-07T01:31:31.460Z,2.70
2022-09-07T01:34:08.273Z,2.70
2022-09-07T01:36:46.506Z,3.30
2022-09-07T01:39:15.548Z,2.50
2022-09-07T01:41:52.030Z,3.10
2022-09-07T01:44:26.444Z,2.78
2022-09-07T01:47:01.824Z,3.05
2022-09-07T01:49:38.243Z,2.90
2022-09-07T01:52:15.284Z,2.95
2022-09-07T01:54:47.925Z,2.78
2022-09-07T01:57:26.388Z,3.03
2022-09-07T02:00:04.520Z,2.85
2022-09-07T02:02:45.193Z,2.80
2022-09-07T02:05:19.666Z,3.05
2022-09-07T02:07:52.617Z,2.83
2022-09-07T02:10:25.731Z,2.80
2022-09-07T02:13:00.567Z,2.72
2022-09-07T02:15:40.471Z,2.70
2022-09-07T02:18:11.632Z,2.83
2022-09-07T02:20:42.000Z,2.80
2022-09-07T02:23:14.828Z,2.80
2022-09-07T02:25:46.892Z,3.22
2022-09-07T02:28:19.243Z,2.85
2022-09-07T02:30:49.714Z,3.10
2022-09-07T02:33:18.773Z,2.90
2022-09-07T02:40:44.415Z,3.40
2022-09-07T02:43:13.274Z,3.13
2022-09-07T02:48:30.745Z,3.10
2022-09-07T02:51:08.029Z,2.92
2022-09-07T02:53:58.167Z,3.10
2022-09-07T02:56:54.485Z,2.90
2022-09-07T02:59:39.037Z,3.22
2022-09-07T03:02:16.846Z,2.92
2022-09-07T03:04:52.592Z,2.85
2022-09-07T03:07:25.733Z,2.90
2022-09-07T03:09:57.342Z,2.95
2022-09-07T03:12:26.105Z,3.15
2022-09-07T03:14:54.693Z,2.95
2022-09-07T03:17:23.433Z,3.45
2022-09-07T03:19:53.362Z,4.28
2022-09-07T03:22:22.000Z,3.20
2022-09-07T03:24:50.584Z,3.13
2022-09-07T03:27:19.135Z,3.22
2022-09-07T03:29:47.694Z,3.00
2022-09-07T03:32:16.300Z,3.53
2022-09-07T03:34:44.957Z,2.90
2022-09-07T03:37:14.952Z,2.88
2022-09-07T03:39:43.640Z,2.92
2022-09-07T03:42:12.246Z,3.10
2022-09-07T03:44:40.817Z,3.60
2022-09-07T03:47:09.420Z,3.70
2022-09-07T03:49:38.001Z,3.10
2022-09-07T03:52:06.580Z,3.25
2022-09-07T03:54:39.420Z,3.38
2022-09-07T03:57:08.617Z,3.67
2022-09-07T03:59:37.163Z,3.47
2022-09-07T04:02:05.857Z,3.40
2022-09-07T04:04:34.700Z,3.33
2022-09-07T04:09:31.627Z,3.33
2022-09-07T04:12:01.661Z,2.95
2022-09-07T04:14:30.341Z,3.17
2022-09-07T04:16:58.961Z,3.15
2022-09-07T04:19:27.730Z,2.92
2022-09-07T04:21:56.278Z,2.83
2022-09-07T04:24:24.791Z,4.00
2022-09-07T04:26:53.551Z,3.45
2022-09-07T04:29:23.504Z,3.70
2022-09-07T04:31:52.135Z,2.95
2022-09-07T04:34:20.931Z,3.20
2022-09-07T04:36:49.486Z,2.92
2022-09-07T04:39:18.124Z,3.20
2022-09-07T04:41:46.685Z,3.80
2022-09-07T04:44:17.098Z,3.15
2022-09-07T04:46:47.324Z,3.08
2022-09-07T04:49:15.919Z,4.00
2022-09-07T04:51:44.537Z,3.80
2022-09-07T04:54:13.223Z,3.95
2022-09-07T04:56:41.889Z,3.55
2022-09-07T04:59:10.469Z,3.47
2022-09-07T05:01:39.191Z,3.17
2022-09-07T05:04:09.255Z,3.22
2022-09-07T05:06:37.895Z,3.17
2022-09-07T05:09:06.533Z,3.30
2022-09-07T05:11:35.103Z,2.58
2022-09-07T05:14:04.986Z,2.75
2022-09-07T05:16:33.810Z,3.05
2022-09-07T05:19:05.472Z,2.63
2022-09-07T05:21:36.642Z,2.85
2022-09-07T05:24:06.342Z,2.90
2022-09-07T05:26:38.567Z,2.90
2022-09-07T05:31:56.316Z,4.80
2022-09-07T05:36:56.497Z,2.92
2022-09-07T05:39:25.710Z,2.80
2022-09-07T05:41:54.398Z,3.03
2022-09-07T05:47:12.462Z,3.03
2022-09-07T05:52:10.867Z,3.75
2022-09-07T05:54:40.316Z,3.10
2022-09-07T05:57:11.634Z,2.97
2022-09-07T05:59:40.293Z,3.05
2022-09-07T06:02:09.029Z,3.15
2022-09-07T06:07:22.939Z,2.95
2022-09-07T06:12:49.023Z,3.05
2022-09-07T06:15:18.887Z,3.20
2022-09-07T06:17:47.643Z,3.03
2022-09-07T06:20:16.385Z,3.28
2022-09-07T06:22:45.215Z,2.70
2022-09-07T06:27:43.730Z,2.97
2022-09-07T06:30:12.891Z,3.17
2022-09-07T06:35:16.095Z,3.47
2022-09-07T06:37:45.109Z,2.92
2022-09-07T06:40:15.346Z,3.20
2022-09-07T06:42:44.008Z,3.00
2022-09-07T06:45:13.972Z,3.67
2022-09-07T06:47:42.630Z,2.90
2022-09-07T06:50:13.020Z,3.40
2022-09-07T06:58:00.232Z,3.70
2022-09-07T07:00:29.558Z,2.90
2022-09-07T07:02:58.923Z,3.40
2022-09-07T07:05:27.778Z,3.35
2022-09-07T07:07:56.587Z,3.38
2022-09-07T07:10:25.468Z,3.10
2022-09-07T07:15:29.961Z,3.67
2022-09-07T07:18:09.280Z,3.90
2022-09-07T07:20:47.717Z,3.65
2022-09-07T07:23:16.427Z,3.08
2022-09-07T07:25:45.317Z,3.50
2022-09-07T07:31:10.551Z,3.30
2022-09-07T07:33:41.224Z,3.20
2022-09-07T07:36:11.625Z,3.13
2022-09-07T07:44:22.317Z,3.35
2022-09-07T07:46:51.998Z,2.95
2022-09-07T07:49:20.953Z,2.92
2022-09-07T07:54:38.337Z,2.35
2022-09-07T07:57:08.109Z,3.20
2022-09-07T07:59:38.164Z,2.65
2022-09-07T08:02:11.372Z,3.40
2022-09-07T08:04:40.113Z,3.33
2022-09-07T08:07:10.999Z,2.65
2022-09-07T08:09:41.651Z,2.80
2022-09-07T08:12:11.432Z,3.00
2022-09-07T08:14:42.374Z,2.80
2022-09-07T08:17:12.549Z,2.78
2022-09-07T08:19:41.479Z,2.85
2022-09-07T08:22:11.097Z,2.38
2022-09-07T08:24:39.882Z,3.20
2022-09-07T08:27:09.274Z,2.95
2022-09-07T08:29:39.523Z,2.45
2022-09-07T08:32:09.533Z,2.85
2022-09-07T08:34:38.468Z,2.60
2022-09-07T08:37:07.868Z,2.72
2022-09-07T08:39:36.805Z,2.53
2022-09-07T08:42:17.222Z,2.90
2022-09-07T08:44:51.185Z,2.40
2022-09-07T08:47:30.677Z,2.42
2022-09-07T08:50:04.933Z,2.40
2022-09-07T08:52:43.846Z,2.20
2022-09-07T08:55:16.548Z,2.10
2022-09-07T08:57:50.792Z,2.17
2022-09-07T09:00:20.546Z,2.38
2022-09-07T09:05:48.017Z,2.40
2022-09-07T09:08:28.720Z,2.08
2022-09-07T09:11:05.110Z,1.98
2022-09-07T09:13:46.369Z,1.85
2022-09-07T09:16:20.650Z,1.90
2022-09-07T09:19:06.420Z,2.03
2022-09-07T09:21:36.160Z,1.70
2022-09-07T09:24:15.989Z,2.30
2022-09-07T09:29:22.538Z,1.92
2022-09-07T09:31:51.431Z,1.77
2022-09-07T09:36:57.922Z,1.70
2022-09-07T09:39:36.884Z,1.60
2022-09-07T09:42:17.273Z,1.75
2022-09-07T09:44:47.151Z,2.10
2022-09-07T09:47:31.530Z,1.75
2022-09-07T09:50:05.214Z,2.00
2022-09-07T09:52:47.647Z,1.98
2022-09-07T09:55:34.911Z,1.70
2022-09-07T10:06:24.601Z,2.30
2022-09-07T10:08:57.882Z,1.92
2022-09-07T10:14:33.673Z,2.22
2022-09-07T10:17:11.424Z,2.67
2022-09-07T10:19:41.983Z,2.55
2022-09-07T10:22:34.065Z,2.10
2022-09-07T10:25:03.508Z,2.85
2022-09-07T10:27:35.511Z,2.15
2022-09-07T10:30:07.823Z,1.70
2022-09-07T10:32:55.211Z,1.92
2022-09-07T10:35:28.567Z,2.00
2022-09-07T10:38:15.228Z,1.80
2022-09-07T10:40:46.228Z,1.73
2022-09-07T10:43:23.480Z,1.60
2022-09-07T10:46:14.509Z,1.77
2022-09-07T10:48:52.501Z,1.55
2022-09-07T10:51:32.313Z,1.80
2022-09-07T10:57:12.808Z,1.60
2022-09-07T11:06:07.950Z,1.40
2022-09-07T11:14:34.403Z,1.63
2022-09-07T11:17:07.852Z,1.95
2022-09-07T11:19:43.369Z,1.33
2022-09-07T11:22:22.452Z,1.65
2022-09-07T11:27:49.414Z,2.08
2022-09-07T11:30:22.059Z,2.10
2022-09-07T11:32:58.539Z,2.10
2022-09-07T11:35:36.433Z,2.13
2022-09-07T11:38:14.502Z,2.00
2022-09-07T11:40:49.888Z,1.90
2022-09-07T11:43:23.752Z,2.03
2022-09-07T11:45:55.728Z,1.95
2022-09-07T11:48:30.719Z,1.60
2022-09-07T11:51:03.556Z,1.83
2022-09-07T11:53:36.649Z,1.73
2022-09-07T11:56:12.829Z,1.83
2022-09-07T11:59:04.893Z,1.88
2022-09-07T12:01:46.554Z,2.03
2022-09-07T12:04:34.883Z,1.90
2022-09-07T12:07:33.874Z,1.55
2022-09-07T12:10:29.246Z,1.40
2022-09-07T12:13:24.276Z,1.77
2022-09-07T12:16:01.763Z,2.58
2022-09-07T12:18:53.857Z,2.22
2022-09-07T12:21:44.107Z,1.92
2022-09-07T12:24:36.565Z,2.20
2022-09-07T12:27:06.027Z,2.10
2022-09-07T12:29:34.868Z,2.20
2022-09-07T12:32:53.228Z,2.35
2022-09-07T12:34:58.104Z,2.00
2022-09-07T12:37:47.247Z,1.98
2022-09-07T12:40:58.940Z,2.10
2022-09-07T12:43:49.802Z,1.50
2022-09-07T12:46:37.291Z,1.80
2022-09-07T12:49:18.910Z,1.73
2022-09-07T12:52:04.976Z,2.30
2022-09-07T12:54:46.192Z,2.10
2022-09-07T12:57:30.373Z,1.90
2022-09-07T13:00:18.974Z,2.58
2022-09-07T13:03:52.108Z,2.50
2022-09-07T13:09:33.005Z,2.45
2022-09-07T13:12:04.948Z,1.67
2022-09-07T13:14:38.218Z,1.63
2022-09-07T13:17:30.576Z,1.90
2022-09-07T13:20:37.545Z,2.70
2022-09-07T13:25:57.463Z,2.30
2022-09-07T13:28:38.436Z,3.50
2022-09-07T13:31:18.768Z,2.15
2022-09-07T13:33:50.502Z,2.35
2022-09-07T13:36:40.295Z,2.30
2022-09-07T13:39:14.378Z,2.30
2022-09-07T13:41:49.888Z,4.45
2022-09-07T13:44:26.533Z,2.50
2022-09-07T13:47:19.045Z,2.58
2022-09-07T13:49:56.892Z,2.80
2022-09-07T13:52:38.779Z,2.60
2022-09-07T13:55:27.468Z,2.85
2022-09-07T14:00:33.150Z,2.80
2022-09-07T14:05:33.349Z,2.70
2022-09-07T14:08:01.788Z,3.10
2022-09-07T14:10:30.359Z,3.25
2022-09-07T14:13:12.587Z,3.08
2022-09-07T14:15:43.874Z,3.40
2022-09-07T14:18:14.142Z,4.50
2022-09-07T14:20:45.499Z,4.35
2022-09-07T14:23:22.083Z,4.63
2022-09-07T14:26:21.048Z,5.90
2022-09-07T14:28:53.053Z,5.65
2022-09-07T14:31:23.567Z,6.20
2022-09-07T14:33:54.785Z,6.63
2022-09-07T14:36:44.324Z,6.75
2022-09-07T14:39:15.410Z,7.10
2022-09-07T14:41:45.015Z,8.05
2022-09-07T14:44:32.970Z,7.60
2022-09-07T14:47:06.106Z,8.38
2022-09-07T14:49:35.127Z,7.78
2022-09-07T14:57:08.038Z,9.27
2022-09-07T14:59:44.250Z,9.95
2022-09-07T15:02:27.359Z,10.90
2022-09-07T15:05:19.201Z,9.40
2022-09-07T15:07:49.841Z,9.23
2022-09-07T15:10:29.786Z,9.88
2022-09-07T15:13:00.437Z,9.02
2022-09-07T15:15:32.649Z,9.80
2022-09-07T15:18:08.560Z,10.43
2022-09-07T15:20:40.416Z,10.82
2022-09-07T15:23:12.314Z,10.60
2022-09-07T15:25:46.576Z,10.50
2022-09-07T15:34:10.201Z,15.27
2022-09-07T15:36:40.837Z,7.68
2022-09-07T15:39:17.075Z,5.55
2022-09-07T15:41:45.941Z,5.75
2022-09-07T15:44:15.193Z,6.93
2022-09-07T15:47:43.265Z,4.80
2022-09-07T15:49:34.323Z,5.30
2022-09-07T15:52:06.613Z,4.75
2022-09-07T15:54:39.256Z,5.97
2022-09-07T15:59:56.715Z,2.83
2022-09-07T16:05:15.369Z,3.13
2022-09-07T16:13:03.696Z,1.92
2022-09-07T16:15:45.859Z,2.47
2022-09-07T16:18:17.958Z,2.50
2022-09-07T16:20:47.954Z,2.35
2022-09-07T16:23:20.810Z,1.90
2022-09-07T16:26:00.026Z,2.22
2022-09-07T16:28:29.568Z,1.90
2022-09-07T16:30:58.388Z,2.20
2022-09-07T16:33:36.826Z,2.28
2022-09-07T16:36:09.377Z,2.38
2022-09-07T16:38:47.301Z,2.33
2022-09-07T16:41:17.750Z,2.10
2022-09-07T16:43:49.020Z,2.47
2022-09-07T16:46:23.457Z,1.88
2022-09-07T16:48:54.816Z,1.90
2022-09-07T16:51:26.150Z,2.33
2022-09-07T16:56:30.899Z,2.63
2022-09-07T16:59:02.499Z,2.92
2022-09-07T17:01:35.879Z,2.85
2022-09-07T17:04:11.834Z,2.13
2022-09-07T17:06:41.473Z,2.20
2022-09-07T17:09:10.111Z,1.92
2022-09-07T17:11:39.231Z,2.38
2022-09-07T17:14:08.222Z,2.30
2022-09-07T17:16:39.381Z,2.63
2022-09-07T17:19:29.189Z,2.63
2022-09-07T17:21:59.855Z,2.33
2022-09-07T17:24:29.608Z,2.40
2022-09-07T17:27:00.485Z,2.90
2022-09-07T17:29:30.634Z,2.60
2022-09-07T17:34:51.348Z,3.00
2022-09-07T17:37:22.013Z,2.80
2022-09-07T17:39:51.098Z,2.85
2022-09-07T17:44:52.830Z,2.72
2022-09-07T17:47:21.880Z,3.15
2022-09-07T17:49:52.003Z,3.70
2022-09-07T17:52:20.927Z,2.90
2022-09-07T17:57:18.334Z,3.33
2022-09-07T18:00:17.145Z,3.00
2022-09-07T18:02:38.894Z,3.00
2022-09-07T18:05:10.064Z,3.42
2022-09-07T18:07:39.395Z,3.65
2022-09-07T18:10:09.180Z,3.47
2022-09-07T18:12:40.258Z,3.15
2022-09-07T18:15:10.090Z,4.03
2022-09-07T18:17:39.609Z,4.63
2022-09-07T18:20:10.959Z,3.55
2022-09-07T18:22:40.227Z,3.47
2022-09-07T18:25:10.501Z,4.28
2022-09-07T18:27:40.713Z,3.90
2022-09-07T18:30:11.933Z,4.38
2022-09-07T18:32:41.310Z,3.75
2022-09-07T18:35:12.108Z,4.40
2022-09-07T18:37:41.196Z,4.00
2022-09-07T18:42:40.541Z,4.20
2022-09-07T18:47:58.812Z,3.85
2022-09-07T18:53:07.179Z,3.72
2022-09-07T18:55:44.598Z,4.00
2022-09-07T18:58:13.233Z,4.38
2022-09-07T19:00:45.044Z,4.28
2022-09-07T19:03:13.965Z,4.07
2022-09-07T19:05:52.581Z,3.80
2022-09-07T19:08:21.646Z,3.90
2022-09-07T19:10:50.454Z,3.60
2022-09-07T19:15:49.549Z,3.30
2022-09-07T19:18:39.941Z,3.63
2022-09-07T19:21:14.818Z,3.45
2022-09-07T19:23:45.349Z,3.65
2022-09-07T19:26:13.944Z,3.72
2022-09-07T19:28:42.461Z,3.40
2022-09-07T19:31:11.024Z,3.92
2022-09-07T19:33:39.592Z,3.38
2022-09-07T19:36:10.323Z,3.97
2022-09-07T19:38:38.799Z,3.50
2022-09-07T19:41:09.192Z,4.00
2022-09-07T19:43:38.624Z,3.83
2022-09-07T19:46:07.296Z,3.88
2022-09-07T19:48:35.711Z,3.78
2022-09-07T19:51:05.167Z,3.63
2022-09-07T19:53:36.393Z,4.43
2022-09-07T19:56:06.736Z,4.03
2022-09-07T19:58:39.101Z,3.78
2022-09-07T20:01:09.274Z,3.47
2022-09-07T20:03:37.941Z,3.47
2022-09-07T20:06:07.558Z,4.18
2022-09-07T20:08:37.800Z,3.63
2022-09-07T20:11:08.448Z,3.72
2022-09-07T20:13:38.024Z,4.10
2022-09-07T20:16:08.757Z,3.47
2022-09-07T20:18:38.021Z,3.80
2022-09-07T20:21:07.766Z,3.97
2022-09-07T20:23:37.678Z,4.28
2022-09-07T20:26:08.081Z,4.30
2022-09-07T20:28:37.128Z,4.60
2022-09-07T20:33:39.191Z,3.60
2022-09-07T20:36:10.022Z,3.80
2022-09-07T20:38:42.320Z,4.30
2022-09-07T20:41:17.076Z,4.10
2022-09-07T20:43:48.224Z,4.00
2022-09-07T20:46:17.086Z,4.35
2022-09-07T20:48:45.864Z,3.75
2022-09-07T20:51:20.610Z,4.30
2022-09-07T20:53:51.600Z,4.13
2022-09-07T20:56:21.846Z,3.95
2022-09-07T20:58:54.593Z,4.28
2022-09-07T21:01:25.960Z,4.50
2022-09-07T21:03:56.026Z,3.80
2022-09-07T21:06:25.394Z,4.15
2022-09-07T21:08:56.742Z,3.70
2022-09-07T21:11:27.821Z,4.30
2022-09-07T21:13:58.430Z,3.92
2022-09-07T21:16:30.552Z,3.63
2022-09-07T21:19:02.409Z,3.80
2022-09-07T21:21:38.342Z,3.15
2022-09-07T21:24:18.174Z,3.92
2022-09-07T21:26:47.384Z,3.67
2022-09-07T21:29:18.670Z,3.95
2022-09-07T21:31:47.709Z,4.43
2022-09-07T21:34:17.396Z,4.53
2022-09-07T21:36:46.158Z,5.47
2022-09-07T21:39:16.819Z,4.13
2022-09-07T21:41:48.438Z,4.90
2022-09-07T21:44:17.513Z,4.40
2022-09-07T21:46:48.673Z,4.53
2022-09-07T21:49:17.284Z,3.88
2022-09-07T21:51:48.542Z,4.32
2022-09-07T21:54:21.462Z,4.00
2022-09-07T21:56:50.517Z,3.78
2022-09-07T21:59:22.057Z,3.72
2022-09-07T22:01:50.570Z,3.72
2022-09-07T22:04:22.189Z,3.90
2022-09-07T22:06:51.913Z,3.95
2022-09-07T22:09:24.449Z,3.67
2022-09-07T22:11:55.104Z,4.07
2022-09-07T22:14:23.585Z,4.07
2022-09-07T22:16:52.278Z,3.83
2022-09-07T22:19:22.662Z,3.63
2022-09-07T22:21:54.427Z,3.58
2022-09-07T22:24:26.850Z,4.15
2022-09-07T22:26:55.370Z,3.33
2022-09-07T22:29:23.796Z,3.13
2022-09-07T22:31:52.286Z,3.70
2022-09-07T22:34:23.668Z,3.97
2022-09-07T22:36:53.224Z,4.03
2022-09-07T22:39:22.270Z,3.97
2022-09-07T22:41:52.720Z,3.95
2022-09-07T22:44:24.816Z,3.97
2022-09-07T22:46:53.240Z,4.05
2022-09-07T22:49:21.820Z,4.15
2022-09-07T22:51:52.020Z,4.10
2022-09-07T22:54:21.096Z,4.43
2022-09-07T22:56:50.796Z,4.53
2022-09-07T22:59:23.704Z,4.15
2022-09-07T23:01:52.245Z,4.25
2022-09-07T23:04:20.726Z,4.20
2022-09-07T23:06:49.176Z,4.13
2022-09-07T23:09:21.244Z,3.70
2022-09-07T23:11:52.496Z,3.90
2022-09-07T23:14:23.894Z,4.00
2022-09-07T23:16:52.347Z,3.75
2022-09-07T23:19:21.656Z,3.45
2022-09-07T23:21:50.332Z,3.08
2022-09-07T23:24:19.869Z,3.50
2022-09-07T23:26:48.823Z,3.42
2022-09-07T23:31:48.315Z,3.00
2022-09-07T23:34:16.887Z,2.80
2022-09-07T23:36:45.271Z,3.30
2022-09-07T23:39:14.083Z,3.65
2022-09-07T23:41:43.516Z,3.10
2022-09-07T23:44:12.108Z,2.70
2022-09-07T23:46:40.578Z,3.38
2022-09-07T23:49:13.801Z,3.22
2022-09-07T23:51:44.924Z,3.28
2022-09-07T23:54:14.161Z,2.75
2022-09-07T23:56:44.638Z,2.53
2022-09-07T23:59:15.764Z,3.00
